Aérodrome :
LOGIN :

S'inscrire | Disclaimer

   EN    FR    IT 

 










Légende :    VFR   VFR Marginal   IFR   IFR Intensif   IFR Très Intensif
Visi : 
Plafond : 
>= 8 km
>= 3000ft
5 à 8 km
1000 à 3000 ft
1500m à 5 km
500 à 1000 ft
800 à 1500m
200 à 500 ft
< 800m
< 200 ft
Symboles :   Orages  Brouillard  Fortes neiges  Fortes précipitations  Vent > 20 kt
SIGMETs :   Divers  Orages  Givrage  Turbulence  Onde Orograph.  Cendres Volcan.







- Altitude de l'aérodrome : 157 ft
- Code IATA : LIL
- Voir les cartes d'approche


LFQQ - Lille Lesquin

DERNIER METAR :
  • 220930Z AUTO 16013KT 1900 -SN BR BKN006 OVC011 M01/M02 Q1005 TEMPO 17020G30KT SN OVC002

METARs EXPIRÉS :
  • 220900Z AUTO 16017KT 1500 -SN BR BKN006 OVC013 M02/M02 Q1005 TEMPO 17020G30KT SN OVC002
  • 220830Z AUTO 17014KT 1300 1200 R26/1900D R08/1600U -SN BR OVC005 M02/M02 Q1006 TEMPO 17020G30KT 1500 SN
  • 220800Z AUTO 16016KT 1400 1300 R26/1900N R08/1700U SN BR BKN006 OVC010 M02/M02 Q1006 TEMPO 17020G30KT 1500 SN OVC002
  • 220730Z AUTO 16015KT 3900 -SN BR OVC008 M01/M02 Q1006 TEMPO 17020G30KT 1500 SN OVC002
  • 220700Z AUTO 17014KT 5000 BR OVC008 M01/M03 Q1007 TEMPO 17020G30KT 1500 SN OVC002

TAF TAF LFQQ
Valide du 22 à 06h jusqu'au 23 à 12h UTC


220500Z 2206/2312 17012KT 6000 OVC007
TEMPO 2206/2212 17020G30KT 1500 SN OVC002
PROB40
TEMPO 2206/2207 FZRA
TEMPO 2221/2224 1500 SHSN OVC003 BKN030TCU
BECMG 2300/2303 VRB02KT 3000 BR BKN003
BECMG 2310/2312 34012KT 5000 NSW BKN007
ATIS : +33 3 20 16 19 54
Pas de NOTAMs connus pour ce terrain.



MET'MAP, la Météo Aéronautique d'un coup d'oeil ! - Copyright ORBIFLY Décembre 2007 - Disclaimer

ORBIFLY MET'MAP TEAM :

Programmation & Développement : Alexandra Zaïnal
Conception & Développement : Baudouin d'Aumeries
Co-Programmation & Développement : Marc-Olivier Méhu
Soutien technique & logistique : Manuel Goepfert

Contact : metmap@orbifly.com




SOURCES & CREDITS :

   NOAA